Flight Track Log - Related Links

Times and Time Zones

All times are in EDT time to prevent confusion due to time zone crossing. See the N319EE flight status page for this flight to view local times or setup timezone preferences in your user account.

Time Position Orientation Groundspeed Altitude Reporting Facility
EDT Latitude Longitude Course Direction KTS MPH feet Rate Location/Type
Mon 03:02:19 PM 44.3475 -69.8767 259° West 171 197 3,100  Level Boston Center
Mon 03:03:20 PM 44.3381 -69.9444 259° West 166 191 5,100 2,049 Climbing Boston Center
Mon 03:04:22 PM 44.3261 -70.0108 256° West 175 201 7,300 2,098 Climbing Boston Center
Mon 03:05:23 PM 44.3175 -70.0803 260° West 179 206 9,400 2,049 Climbing Boston Center
Mon 03:06:25 PM 44.3019 -70.1522 253° West 180 207 11,500 1,805 Climbing Boston Center
Mon 03:07:26 PM 44.2922 -70.2236 259° West 184 212 13,100 1,561 Climbing Boston Center
Mon 03:08:28 PM 44.2794 -70.3019 257° West 191 220 14,700 1,415 Climbing Boston Center
Mon 03:09:29 PM 44.2683 -70.3750 258° West 192 221 16,000 1,171 Climbing Boston Center
Mon 03:10:31 PM 44.2556 -70.4492 256° West 194 223 17,100 1,171 Climbing Boston Center
Mon 03:11:32 PM 44.2431 -70.5308 258° West 199 229 18,400 976 Climbing Boston Center
Mon 03:12:34 PM 44.2328 -70.5953 257° West 200 230 19,100 484 Climbing Boston Center
Mon 03:13:36 PM 44.2181 -70.6781 256° West 212 244 19,400 341 Climbing Boston Center
Mon 03:14:37 PM 44.2000 -70.7886 257° West 238 274 19,800 293 Climbing Boston Center
Mon 03:15:39 PM 44.1850 -70.8844 258° West 249 287 20,000 98 Climbing Boston Center
Mon 03:16:40 PM 44.1689 -70.9806 257° West 252 290 20,000  Level Boston Center
Mon 03:17:42 PM 44.1522 -71.0792 257° West 257 296 20,000  Level Boston Center
Mon 03:18:43 PM 44.1361 -71.1728 257° West 255 293 20,000  Level Boston Center
Mon 03:19:45 PM 44.1214 -71.2681 258° West 253 291 20,000  Level Boston Center
Mon 03:20:46 PM 44.1053 -71.3589 256° West 246 283 20,000  Level Boston Center
Mon 03:21:48 PM 44.0892 -71.4528 257° West 246 283 20,000  Level Boston Center
Mon 03:22:50 PM 44.0694 -71.5617 256° West 248 285 20,000  Level Boston Center
Mon 03:23:51 PM 44.0542 -71.6536 257° West 247 284 20,000  Level Boston Center
Mon 03:24:53 PM 44.0378 -71.7469 256° West 248 285 20,000  Level Boston Center
Mon 03:25:54 PM 44.0208 -71.8386 256° West 248 285 20,000  Level Boston Center
Mon 03:26:56 PM 44.0058 -71.9242 256° West 247 284 20,000  Level Boston Center
Mon 03:27:58 PM 43.9872 -72.0364 257° West 248 285 20,000  Level Boston Center
Mon 03:28:59 PM 43.9692 -72.1292 255° West 249 287 20,000  Level Boston Center
Mon 03:30:01 PM 43.9525 -72.2222 256° West 249 287 20,000  Level Boston Center
Mon 03:31:03 PM 43.9367 -72.3156 257° West 249 287 20,000  Level Boston Center
Mon 03:32:04 PM 43.9200 -72.4081 256° West 249 287 20,000  Level Boston Center
Mon 03:33:06 PM 43.9031 -72.5000 256° West 249 287 20,000  Level Boston Center
Mon 03:34:07 PM 43.8858 -72.5914 255° West 249 287 20,000  Level Boston Center
Mon 03:35:09 PM 43.8658 -72.7011 256° West 247 284 20,000  Level Boston Center
Mon 03:36:11 PM 43.8497 -72.7931 256° West 247 284 20,000  Level Boston Center
Mon 03:37:12 PM 43.8322 -72.8850 255° West 247 284 20,000  Level Boston Center
Mon 03:38:14 PM 43.8150 -72.9764 255° West 247 284 20,000  Level Boston Center
Mon 03:39:16 PM 43.7733 -73.0644 237° Southwest 250 288 20,000  Level Boston Center
Mon 03:40:17 PM 43.7272 -73.1372 229° Southwest 252 290 20,000  Level Boston Center
Mon 03:41:19 PM 43.7111 -73.2294 256° West 249 287 20,000  Level Boston Center
Mon 03:42:21 PM 43.7008 -73.3244 262° West 249 287 20,000  Level Boston Center
Mon 03:43:22 PM 43.6894 -73.4192 261° West 249 287 20,000  Level Boston Center
Mon 03:44:24 PM 43.6792 -73.5133 261° West 249 287 20,000  Level Boston Center
Mon 03:45:26 PM 43.6681 -73.6081 261° West 249 287 20,000  Level Boston Center
Mon 03:46:27 PM 43.6547 -73.7214 261° West 250 288 20,000  Level Boston Center
Mon 03:47:29 PM 43.6431 -73.8178 261° West 250 288 20,000  Level Boston Center
Mon 03:48:31 PM 43.6319 -73.9114 261° West 250 288 20,000  Level Boston Center
Mon 03:49:32 PM 43.6203 -74.0069 260° West 250 288 20,000  Level Boston Center
Mon 03:50:34 PM 43.6092 -74.1033 261° West 250 288 20,000  Level Boston Center
Mon 03:51:35 PM 43.5989 -74.1961 261° West 250 288 20,000  Level Boston Center
Mon 03:52:37 PM 43.5864 -74.2897 260° West 250 288 20,000  Level Boston Center
Mon 03:53:39 PM 43.5750 -74.3839 261° West 250 288 20,000  Level Boston Center
Mon 03:54:40 PM 43.5608 -74.4961 260° West 250 288 20,000  Level Boston Center
Mon 03:55:42 PM 43.5492 -74.5897 260° West 250 288 20,000  Level Boston Center
Mon 03:56:43 PM 43.5378 -74.6833 261° West 250 288 20,000  Level Boston Center
Mon 03:57:45 PM 43.5258 -74.7769 260° West 250 288 20,000  Level Boston Center
Mon 03:58:46 PM 43.5139 -74.8694 260° West 249 287 20,000  Level Boston Center
Mon 03:59:48 PM 43.5022 -74.9636 260° West 249 287 20,000  Level Boston Center
Mon 04:00:49 PM 43.4900 -75.0578 260° West 250 288 20,000  Level Boston Center
Mon 04:01:51 PM 43.4758 -75.1692 260° West 250 288 20,000  Level Boston Center
Mon 04:02:53 PM 43.4639 -75.2611 260° West 249 287 20,000  Level Boston Center
Mon 04:03:54 PM 43.4517 -75.3531 260° West 250 288 20,000  Level Boston Center
Mon 04:04:56 PM 43.4397 -75.4453 260° West 249 287 20,000  Level Boston Center
Mon 04:05:57 PM 43.4272 -75.5375 259° West 249 287 20,000  Level Boston Center
Mon 04:06:59 PM 43.4122 -75.6494 260° West 249 287 20,000  Level Boston Center
Mon 04:08:00 PM 43.3994 -75.7428 259° West 249 287 20,000 -341 Level Boston Center
Mon 04:09:02 PM 43.3861 -75.8375 259° West 251 289 19,300 -829 Descending Boston Center
Mon 04:10:03 PM 43.3717 -75.9411 259° West 271 312 18,300 -976 Descending Boston Center
Mon 04:11:05 PM 43.3569 -76.0481 259° West 282 325 17,300 -976 Descending Boston Center
Mon 04:12:06 PM 43.3428 -76.1533 260° West 282 325 16,300 -976 Descending Boston Center
Mon 04:13:08 PM 43.3272 -76.2589 259° West 282 325 15,300 -976 Descending Boston Center
Mon 04:14:09 PM 43.3122 -76.3656 259° West 283 326 14,300 -1,171 Descending Boston Center
Mon 04:15:11 PM 43.2961 -76.4942 260° West 284 327 12,900 -1,122 Descending Boston Center
Mon 04:16:12 PM 43.2789 -76.5992 257° West 284 327 12,000 -836 Descending Boston Center
Mon 04:17:13 PM 43.2639 -76.7022 259° West 284 327 11,200 -488 Descending Boston Center
Mon 04:18:15 PM 43.2503 -76.8047 260° West 276 318 11,000 -107 Descending Boston Center
Mon 04:19:05 PM 43.2358 -76.8950 258° West 257 296 11,000 -432 Level Cleveland Center
Mon 04:20:06 PM 43.2208 -76.9897 258° West 268 308 10,200 -1,279 Descending Cleveland Center
Mon 04:21:07 PM 43.1928 -77.0869 248° West 279 321 8,400 -1,606 Descending Cleveland Center
Mon 04:22:13 PM 43.1639 -77.1903 249° West 276 318 6,800 -1,406 Descending Cleveland Center
Mon 04:23:15 PM 43.1361 -77.2889 249° West 276 318 5,400 -1,403 Descending Cleveland Center
Mon 04:24:17 PM 43.1064 -77.3883 248° West 280 322 3,900 -1,500 Descending Cleveland Center
Mon 04:24:27 PM 43.0983 -77.4158 248° West 278 320 3,600 -968 Descending Cleveland Center
Mon 04:25:19 PM 43.0800 -77.4828 249° West 274 315 2,900 -684 Descending Cleveland Center
Mon 04:26:21 PM 43.0636 -77.5950 259° West 258 297 2,300 -508 Descending Cleveland Center
Mon 04:27:17 PM 43.0617 -77.6756 268° West 190 219 1,900 -621 Descending Cleveland Center
Mon 04:28:17 PM 43.0872 -77.7053 320° Northwest 138 159 1,100 -641 Descending Cleveland Center
Mon 04:29:28 PM 43.1178 -77.6792 32° Northeast 145 167 500 -507 Descending Cleveland Center

Login

Don't have an account? Register now (free) for customized features, flight alerts, and more!